createdAt,value
2018-12-21T00:00:21.834Z,8.60
2018-12-21T00:02:51.752Z,5.67
2018-12-21T00:05:21.184Z,6.58
2018-12-21T00:07:50.262Z,6.40
2018-12-21T00:10:19.363Z,7.42
2018-12-21T00:12:48.627Z,7.45
2018-12-21T00:15:17.945Z,6.67
2018-12-21T00:17:47.634Z,7.40
2018-12-21T00:20:16.797Z,6.73
2018-12-21T00:22:45.942Z,7.72
2018-12-21T00:25:15.207Z,7.23
2018-12-21T00:27:44.266Z,7.08
2018-12-21T00:30:19.066Z,7.45
2018-12-21T00:32:53.612Z,9.73
2018-12-21T00:35:27.918Z,7.42
2018-12-21T00:38:02.204Z,6.47
2018-12-21T00:40:36.395Z,6.47
2018-12-21T00:43:11.165Z,6.60
2018-12-21T00:45:45.502Z,7.30
2018-12-21T00:48:14.690Z,6.92
2018-12-21T00:50:43.748Z,6.60
2018-12-21T00:53:12.996Z,7.08
2018-12-21T00:55:42.143Z,7.15
2018-12-21T00:58:11.272Z,7.37
2018-12-21T01:00:40.452Z,6.58
2018-12-21T01:03:09.680Z,5.97
2018-12-21T01:05:38.840Z,5.55
2018-12-21T01:08:08.059Z,5.60
2018-12-21T01:10:37.428Z,7.37
2018-12-21T01:13:06.632Z,5.83
2018-12-21T01:15:36.052Z,7.17
2018-12-21T01:18:05.371Z,7.33
2018-12-21T01:20:34.579Z,5.50
2018-12-21T01:23:03.675Z,7.70
2018-12-21T01:25:32.816Z,6.62
2018-12-21T01:28:01.850Z,6.92
2018-12-21T01:30:30.810Z,6.80
2018-12-21T01:32:59.948Z,7.85
2018-12-21T01:35:29.091Z,5.73
2018-12-21T01:37:58.132Z,6.92
2018-12-21T01:40:27.543Z,7.42
2018-12-21T01:42:57.595Z,7.90
2018-12-21T01:45:26.882Z,6.92
2018-12-21T01:47:56.026Z,8.30
2018-12-21T01:50:25.132Z,7.17
2018-12-21T01:52:54.239Z,6.72
2018-12-21T01:55:23.361Z,6.53
2018-12-21T01:57:52.534Z,7.28
2018-12-21T02:00:21.952Z,7.12
2018-12-21T02:02:51.197Z,7.80
2018-12-21T02:05:21.436Z,6.58
2018-12-21T02:07:50.500Z,6.60
2018-12-21T02:10:19.615Z,6.85
2018-12-21T02:12:48.803Z,7.50
2018-12-21T02:15:17.940Z,7.03
2018-12-21T02:17:47.040Z,6.72
2018-12-21T02:20:16.215Z,6.03
2018-12-21T02:22:45.485Z,6.10
2018-12-21T02:25:14.611Z,6.92
2018-12-21T02:27:44.032Z,7.47
2018-12-21T02:30:13.333Z,7.37
2018-12-21T02:32:42.471Z,6.58
2018-12-21T02:35:11.724Z,7.30
2018-12-21T02:37:40.905Z,7.05
2018-12-21T02:40:10.635Z,6.85
2018-12-21T02:42:39.716Z,6.47
2018-12-21T02:45:09.164Z,7.03
2018-12-21T02:47:38.333Z,6.13
2018-12-21T02:50:07.919Z,6.67
2018-12-21T02:52:37.541Z,6.90
2018-12-21T02:55:07.212Z,6.25
2018-12-21T02:57:36.834Z,7.03
2018-12-21T03:00:07.078Z,5.85
2018-12-21T03:02:36.164Z,6.33
2018-12-21T03:05:05.340Z,6.62
2018-12-21T03:07:34.659Z,6.33
2018-12-21T03:10:05.055Z,6.25
2018-12-21T03:12:34.226Z,7.50
2018-12-21T03:15:04.573Z,6.97
2018-12-21T03:17:34.267Z,6.37
2018-12-21T03:20:03.597Z,6.20
2018-12-21T03:22:32.764Z,7.33
2018-12-21T03:25:01.749Z,6.97
2018-12-21T03:27:30.891Z,5.97
2018-12-21T03:30:00.039Z,7.33
2018-12-21T03:32:29.177Z,6.28
2018-12-21T03:34:59.330Z,6.28
2018-12-21T03:37:29.297Z,6.72
2018-12-21T03:39:59.228Z,6.67
2018-12-21T03:42:28.314Z,6.65
2018-12-21T03:44:57.591Z,6.65
2018-12-21T03:47:26.725Z,6.25
2018-12-21T03:49:55.770Z,7.05
2018-12-21T03:52:24.895Z,7.27
2018-12-21T03:54:53.875Z,6.05
2018-12-21T03:57:23.119Z,6.60
2018-12-21T03:59:52.250Z,7.17
2018-12-21T04:02:21.413Z,6.40
2018-12-21T04:04:50.436Z,5.78
2018-12-21T04:07:19.595Z,5.37
2018-12-21T04:09:48.980Z,7.37
2018-12-21T04:12:18.184Z,6.50
2018-12-21T04:14:47.497Z,5.83
2018-12-21T04:17:16.856Z,6.80
2018-12-21T04:19:46.037Z,5.72
2018-12-21T04:22:15.375Z,6.50
2018-12-21T04:24:44.659Z,6.35
2018-12-21T04:27:13.793Z,5.90
2018-12-21T04:29:43.723Z,6.67
2018-12-21T04:32:12.901Z,5.97
2018-12-21T04:34:42.712Z,6.37
2018-12-21T04:37:11.897Z,7.40
2018-12-21T04:39:41.050Z,7.67
2018-12-21T04:42:10.189Z,6.92
2018-12-21T04:44:39.236Z,6.72
2018-12-21T04:47:08.368Z,6.65
2018-12-21T04:49:37.545Z,6.10
2018-12-21T04:52:06.888Z,7.33
2018-12-21T04:54:35.997Z,6.50
2018-12-21T04:57:05.188Z,6.00
2018-12-21T04:59:34.312Z,5.90
2018-12-21T05:02:03.573Z,6.65
2018-12-21T05:04:32.749Z,6.33
2018-12-21T05:07:01.845Z,6.62
2018-12-21T05:09:30.934Z,5.97
2018-12-21T05:12:00.131Z,5.62
2018-12-21T05:14:29.237Z,6.28
2018-12-21T05:16:58.508Z,6.50
2018-12-21T05:19:27.752Z,7.30
2018-12-21T05:21:56.788Z,6.92
2018-12-21T05:24:25.799Z,7.50
2018-12-21T05:26:54.989Z,5.95
2018-12-21T05:29:24.127Z,6.30
2018-12-21T05:31:53.282Z,6.10
2018-12-21T05:34:22.300Z,5.87
2018-12-21T05:36:51.460Z,5.58
2018-12-21T05:39:20.507Z,6.03
2018-12-21T05:41:49.648Z,6.53
2018-12-21T05:44:18.767Z,7.37
2018-12-21T05:46:48.100Z,7.20
2018-12-21T05:49:17.178Z,7.12
2018-12-21T05:51:46.221Z,6.58
2018-12-21T05:54:15.991Z,6.77
2018-12-21T05:56:45.036Z,7.05
2018-12-21T05:59:14.293Z,6.00
2018-12-21T06:01:43.328Z,6.65
2018-12-21T06:04:12.464Z,5.47
2018-12-21T06:06:41.515Z,6.90
2018-12-21T06:09:10.539Z,6.15
2018-12-21T06:11:39.729Z,6.80
2018-12-21T06:14:08.979Z,6.60
2018-12-21T06:16:38.008Z,6.23
2018-12-21T06:19:07.135Z,6.08
2018-12-21T06:21:36.299Z,6.65
2018-12-21T06:24:05.416Z,7.10
2018-12-21T06:26:34.735Z,6.78
2018-12-21T06:29:03.776Z,6.50
2018-12-21T06:31:32.923Z,5.57
2018-12-21T06:34:02.080Z,6.33
2018-12-21T06:36:31.211Z,6.27
2018-12-21T06:39:00.423Z,6.47
2018-12-21T06:41:29.595Z,7.22
2018-12-21T06:43:58.611Z,6.03
2018-12-21T06:46:27.685Z,6.72
2018-12-21T06:48:56.733Z,5.85
2018-12-21T06:51:25.795Z,6.17
2018-12-21T06:53:54.940Z,6.22
2018-12-21T06:56:24.088Z,6.43
2018-12-21T06:58:53.392Z,5.85
2018-12-21T07:01:22.589Z,6.62
2018-12-21T07:03:51.719Z,6.10
2018-12-21T07:06:20.877Z,5.75
2018-12-21T07:08:50.054Z,5.87
2018-12-21T07:11:19.151Z,6.62
2018-12-21T07:13:48.308Z,5.90
2018-12-21T07:16:17.459Z,6.78
2018-12-21T07:18:46.664Z,5.83
2018-12-21T07:21:15.975Z,7.42
2018-12-21T07:23:45.101Z,6.85
2018-12-21T07:26:14.356Z,6.15
2018-12-21T07:28:43.563Z,5.42
2018-12-21T07:31:12.621Z,6.92
2018-12-21T07:33:41.799Z,6.83
2018-12-21T07:36:10.992Z,5.90
2018-12-21T07:38:40.239Z,6.58
2018-12-21T07:41:09.301Z,7.15
2018-12-21T07:43:38.270Z,6.33
2018-12-21T07:46:07.904Z,5.78
2018-12-21T07:48:37.028Z,7.50
2018-12-21T07:51:06.959Z,5.80
2018-12-21T07:53:36.282Z,6.83
2018-12-21T07:56:05.492Z,6.08
2018-12-21T07:58:34.607Z,6.58
2018-12-21T08:01:03.777Z,6.53
2018-12-21T08:03:32.905Z,7.17
2018-12-21T08:06:01.975Z,6.92
2018-12-21T08:08:31.100Z,6.35
2018-12-21T08:11:00.248Z,7.40
2018-12-21T08:13:29.239Z,5.95
2018-12-21T08:15:58.255Z,6.62
2018-12-21T08:18:27.280Z,6.33
2018-12-21T08:20:56.447Z,7.17
2018-12-21T08:23:25.558Z,6.17
2018-12-21T08:25:54.619Z,6.75
2018-12-21T08:28:23.757Z,6.28
2018-12-21T08:30:52.811Z,6.15
2018-12-21T08:33:21.841Z,6.28
2018-12-21T08:35:51.165Z,7.05
2018-12-21T08:38:20.460Z,6.62
2018-12-21T08:40:49.716Z,5.23
2018-12-21T08:43:18.855Z,6.75
2018-12-21T08:45:47.892Z,6.55
2018-12-21T08:48:17.029Z,7.42
2018-12-21T08:50:46.993Z,5.83
2018-12-21T08:53:16.141Z,5.83
2018-12-21T08:55:45.192Z,6.47
2018-12-21T08:58:14.346Z,5.40
2018-12-21T09:00:43.375Z,7.17
2018-12-21T09:03:12.363Z,5.47
2018-12-21T09:05:41.372Z,6.35
2018-12-21T09:08:10.519Z,5.40
2018-12-21T09:10:39.672Z,7.15
2018-12-21T09:13:08.678Z,4.95
2018-12-21T09:15:38.007Z,5.40
2018-12-21T09:18:07.208Z,6.28
2018-12-21T09:20:36.241Z,6.47
2018-12-21T09:23:05.479Z,5.00
2018-12-21T09:25:34.740Z,6.08
2018-12-21T09:28:03.782Z,6.85
2018-12-21T09:30:32.827Z,6.85
2018-12-21T09:33:01.872Z,5.97
2018-12-21T09:35:31.026Z,5.77
2018-12-21T09:38:00.004Z,6.33
2018-12-21T09:40:29.163Z,6.03
2018-12-21T09:42:58.359Z,6.17
2018-12-21T09:45:27.495Z,6.30
2018-12-21T09:47:56.635Z,6.05
2018-12-21T09:50:25.853Z,6.08
2018-12-21T09:52:55.000Z,5.58
2018-12-21T09:55:24.075Z,6.17
2018-12-21T09:57:53.067Z,6.05
2018-12-21T10:00:22.958Z,7.07
2018-12-21T10:02:51.976Z,6.50
2018-12-21T10:05:21.123Z,6.85
2018-12-21T10:07:50.338Z,5.40
2018-12-21T10:10:19.484Z,6.83
2018-12-21T10:12:53.336Z,5.85
2018-12-21T10:15:19.960Z,5.97
2018-12-21T10:17:49.115Z,6.22
2018-12-21T10:20:20.037Z,6.10
2018-12-21T10:22:49.493Z,5.42
2018-12-21T10:25:18.684Z,6.97
2018-12-21T10:27:47.862Z,6.15
2018-12-21T10:30:16.991Z,5.78
2018-12-21T10:32:46.307Z,6.55
2018-12-21T10:35:15.478Z,5.25
2018-12-21T10:37:44.531Z,5.63
2018-12-21T10:40:13.666Z,6.47
2018-12-21T10:42:42.992Z,6.00
2018-12-21T10:45:12.175Z,6.45
2018-12-21T10:47:41.319Z,6.50
2018-12-21T10:50:11.864Z,4.92
2018-12-21T10:52:41.051Z,7.08
2018-12-21T10:55:10.281Z,6.17
2018-12-21T10:57:39.352Z,5.50
2018-12-21T11:00:10.841Z,5.92
2018-12-21T11:02:39.997Z,6.40
2018-12-21T11:05:09.556Z,5.58
2018-12-21T11:07:38.588Z,5.25
2018-12-21T11:10:10.402Z,6.58
2018-12-21T11:12:39.562Z,6.17
2018-12-21T11:15:08.412Z,5.80
2018-12-21T11:17:37.792Z,5.72
2018-12-21T11:20:08.103Z,5.72
2018-12-21T11:22:37.242Z,6.83
2018-12-21T11:25:08.833Z,5.30
2018-12-21T11:27:38.043Z,5.95
2018-12-21T11:30:08.031Z,5.45
2018-12-21T11:32:37.050Z,5.92
2018-12-21T11:35:06.422Z,6.30
2018-12-21T11:37:35.560Z,5.87
2018-12-21T11:40:04.992Z,6.27
2018-12-21T11:42:34.155Z,6.05
2018-12-21T11:45:03.414Z,5.75
2018-12-21T11:47:32.440Z,6.43
2018-12-21T11:50:01.504Z,5.53
2018-12-21T11:52:30.519Z,5.87
2018-12-21T11:54:59.581Z,5.93
2018-12-21T11:57:28.718Z,5.65
2018-12-21T11:59:57.881Z,6.33
2018-12-21T12:02:27.110Z,6.37
2018-12-21T12:04:56.181Z,5.05
2018-12-21T12:07:25.329Z,5.58
2018-12-21T12:09:54.451Z,5.20
2018-12-21T12:12:23.496Z,5.03
2018-12-21T12:14:52.661Z,5.80
2018-12-21T12:17:21.799Z,5.67
2018-12-21T12:19:51.006Z,6.30
2018-12-21T12:22:20.175Z,5.35
2018-12-21T12:24:52.831Z,5.03
2018-12-21T12:27:21.339Z,6.47
2018-12-21T12:29:50.405Z,5.47
2018-12-21T12:32:19.554Z,5.33
2018-12-21T12:34:49.559Z,5.50
2018-12-21T12:37:18.765Z,6.58
2018-12-21T12:39:47.900Z,6.05
2018-12-21T12:42:17.260Z,6.42
2018-12-21T12:44:46.932Z,5.10
2018-12-21T12:47:16.174Z,6.08
2018-12-21T12:49:46.316Z,5.17
2018-12-21T12:52:15.673Z,5.58
2018-12-21T12:54:44.833Z,6.03
2018-12-21T12:57:14.365Z,5.00
2018-12-21T12:59:43.668Z,4.70
2018-12-21T13:02:12.971Z,5.35
2018-12-21T13:04:42.179Z,5.10
2018-12-21T13:07:11.215Z,5.60
2018-12-21T13:09:40.471Z,5.58
2018-12-21T13:12:09.513Z,5.58
2018-12-21T13:14:38.778Z,5.37
2018-12-21T13:17:07.932Z,6.28
2018-12-21T13:19:36.939Z,5.95
2018-12-21T13:22:06.164Z,6.12
2018-12-21T13:24:35.344Z,6.20
2018-12-21T13:27:04.602Z,6.25
2018-12-21T13:29:33.639Z,5.57
2018-12-21T13:32:02.683Z,5.90
2018-12-21T13:34:31.840Z,6.62
2018-12-21T13:37:00.958Z,7.15
2018-12-21T13:39:30.125Z,6.15
2018-12-21T13:41:59.537Z,5.53
2018-12-21T13:44:29.244Z,6.40
2018-12-21T13:46:58.856Z,6.20
2018-12-21T13:49:28.226Z,6.83
2018-12-21T13:51:57.558Z,6.35
2018-12-21T13:54:26.940Z,5.95
2018-12-21T13:56:56.204Z,6.75
2018-12-21T13:59:25.655Z,7.40
2018-12-21T14:01:54.809Z,6.10
2018-12-21T14:04:24.264Z,7.00
2018-12-21T14:06:53.302Z,7.03
2018-12-21T14:09:22.479Z,8.38
2018-12-21T14:11:51.632Z,6.77
2018-12-21T14:14:20.795Z,7.83
2018-12-21T14:16:49.818Z,10.83
2018-12-21T14:19:18.979Z,7.60
2018-12-21T14:21:48.114Z,9.45
2018-12-21T14:24:17.172Z,9.73
2018-12-21T14:26:46.300Z,11.08
2018-12-21T14:29:15.453Z,9.00
2018-12-21T14:31:44.564Z,8.40
2018-12-21T14:34:13.562Z,12.07
2018-12-21T14:36:42.731Z,13.88
2018-12-21T14:39:11.897Z,10.23
2018-12-21T14:41:41.068Z,15.98
2018-12-21T14:44:10.233Z,16.40
2018-12-21T14:46:39.457Z,11.45
2018-12-21T14:49:08.488Z,17.10
2018-12-21T14:51:37.651Z,12.75
2018-12-21T14:54:06.894Z,12.47
2018-12-21T14:56:35.935Z,9.48
2018-12-21T14:59:05.209Z,13.80
2018-12-21T15:01:34.431Z,11.63
2018-12-21T15:04:04.421Z,10.70
2018-12-21T15:06:33.639Z,11.18
2018-12-21T15:09:03.656Z,9.10
2018-12-21T15:11:32.855Z,12.07
2018-12-21T15:14:02.021Z,20.27
2018-12-21T15:16:31.044Z,20.88
2018-12-21T15:19:00.209Z,20.88
2018-12-21T15:21:29.564Z,16.87
2018-12-21T15:23:58.770Z,16.73
2018-12-21T15:26:27.882Z,17.82
2018-12-21T15:28:57.467Z,20.23
2018-12-21T15:31:26.768Z,19.48
2018-12-21T15:33:55.935Z,12.13
2018-12-21T15:36:25.584Z,18.02
2018-12-21T15:38:54.631Z,17.25
2018-12-21T15:41:23.903Z,15.00
2018-12-21T15:43:52.936Z,15.32
2018-12-21T15:46:22.737Z,22.93
2018-12-21T15:48:51.963Z,20.52
2018-12-21T15:51:21.133Z,16.65
2018-12-21T15:53:50.229Z,26.87
2018-12-21T15:56:19.911Z,18.20
2018-12-21T15:58:49.035Z,20.65
2018-12-21T16:01:18.104Z,18.20
2018-12-21T16:03:47.464Z,15.45
2018-12-21T16:06:16.700Z,14.73
2018-12-21T16:08:45.844Z,16.48
2018-12-21T16:11:14.948Z,16.80
2018-12-21T16:13:44.133Z,16.57
2018-12-21T16:16:13.422Z,17.43
2018-12-21T16:18:42.612Z,26.27
2018-12-21T16:21:11.640Z,26.20
2018-12-21T16:23:40.805Z,12.90
2018-12-21T16:26:09.981Z,21.70
2018-12-21T16:28:38.987Z,20.55
2018-12-21T16:31:08.052Z,26.75
2018-12-21T16:33:37.288Z,27.67
2018-12-21T16:36:06.444Z,21.30
2018-12-21T16:38:35.712Z,21.40
2018-12-21T16:41:04.851Z,26.35
2018-12-21T16:43:33.868Z,23.45
2018-12-21T16:46:03.196Z,21.35
2018-12-21T16:48:32.495Z,25.23
2018-12-21T16:51:01.528Z,27.02
2018-12-21T16:53:30.763Z,19.80
2018-12-21T16:56:00.063Z,23.27
2018-12-21T16:58:29.224Z,16.42
2018-12-21T17:00:58.262Z,18.82
2018-12-21T17:03:27.411Z,18.67
2018-12-21T17:05:56.772Z,15.45
2018-12-21T17:08:26.119Z,21.80
2018-12-21T17:10:55.575Z,21.73
2018-12-21T17:13:24.611Z,17.77
2018-12-21T17:15:53.952Z,24.47
2018-12-21T17:18:24.965Z,24.02
2018-12-21T17:20:54.212Z,25.53
2018-12-21T17:23:23.239Z,19.98
2018-12-21T17:25:52.376Z,16.80
2018-12-21T17:28:21.546Z,22.67
2018-12-21T17:30:50.679Z,20.02
2018-12-21T17:33:19.840Z,18.57
2018-12-21T17:35:48.885Z,25.95
2018-12-21T17:38:18.192Z,19.45
2018-12-21T17:40:47.299Z,24.60
2018-12-21T17:43:16.367Z,20.08
2018-12-21T17:45:45.552Z,20.25
2018-12-21T17:48:14.600Z,24.67
2018-12-21T17:50:43.740Z,17.80
2018-12-21T17:53:13.342Z,25.05
2018-12-21T17:55:43.938Z,20.43
2018-12-21T17:58:14.486Z,20.37
2018-12-21T18:00:44.751Z,23.83
2018-12-21T18:03:22.796Z,21.05
2018-12-21T18:05:53.080Z,21.68
2018-12-21T18:08:23.271Z,24.27
2018-12-21T18:10:52.361Z,26.33
2018-12-21T18:13:21.583Z,24.60
2018-12-21T18:15:50.674Z,18.50
2018-12-21T18:18:25.207Z,24.10
2018-12-21T18:20:50.867Z,22.37
2018-12-21T18:23:19.956Z,26.57
2018-12-21T18:25:48.982Z,22.42
2018-12-21T18:28:23.283Z,24.87
2018-12-21T18:30:56.267Z,25.82
2018-12-21T18:33:26.059Z,27.58
2018-12-21T18:35:55.146Z,22.13
2018-12-21T18:38:27.059Z,29.27
2018-12-21T18:40:56.108Z,27.58
2018-12-21T18:43:25.360Z,24.63
2018-12-21T18:45:54.607Z,23.32
2018-12-21T18:48:23.759Z,21.40
2018-12-21T18:50:52.899Z,24.25
2018-12-21T18:53:22.148Z,27.02
2018-12-21T18:55:53.154Z,29.40
2018-12-21T18:58:22.596Z,30.68
2018-12-21T19:00:51.904Z,24.67
2018-12-21T19:03:21.179Z,24.67
2018-12-21T19:05:50.235Z,25.65
2018-12-21T19:08:19.276Z,17.07
2018-12-21T19:10:48.464Z,17.32
2018-12-21T19:13:17.695Z,23.83
2018-12-21T19:15:46.724Z,26.40
2018-12-21T19:18:15.755Z,26.90
2018-12-21T19:20:44.919Z,18.77
2018-12-21T19:23:13.927Z,21.65
2018-12-21T19:25:43.216Z,22.35
2018-12-21T19:28:12.448Z,18.23
2018-12-21T19:30:41.495Z,19.70
2018-12-21T19:33:10.951Z,13.25
2018-12-21T19:35:40.511Z,15.10
2018-12-21T19:38:09.648Z,23.97
2018-12-21T19:40:38.956Z,23.98
2018-12-21T19:43:08.208Z,24.60
2018-12-21T19:45:37.327Z,21.82
2018-12-21T19:48:06.547Z,20.37
2018-12-21T19:50:35.782Z,20.15
2018-12-21T19:53:04.887Z,32.03
2018-12-21T19:57:47.032Z,24.80
2018-12-21T20:00:16.182Z,24.98
2018-12-21T20:02:45.399Z,18.37
2018-12-21T20:05:14.649Z,22.60
2018-12-21T20:07:43.784Z,19.82
2018-12-21T20:10:13.628Z,22.65
2018-12-21T20:12:43.035Z,20.97
2018-12-21T20:15:12.228Z,20.05
2018-12-21T20:17:41.940Z,26.00
2018-12-21T20:20:11.959Z,25.52
2018-12-21T20:22:41.235Z,25.87
2018-12-21T20:25:12.811Z,19.37
2018-12-21T20:27:42.438Z,21.42
2018-12-21T20:30:14.476Z,23.10
2018-12-21T20:32:43.658Z,25.00
2018-12-21T20:35:13.034Z,23.47
2018-12-21T20:37:42.267Z,20.97
2018-12-21T20:40:12.934Z,26.45
2018-12-21T20:42:42.071Z,18.45
2018-12-21T20:45:11.883Z,20.17
2018-12-21T20:47:41.336Z,24.33
2018-12-21T20:50:13.897Z,27.17
2018-12-21T20:52:43.987Z,22.85
2018-12-21T20:55:13.217Z,20.20
2018-12-21T20:57:44.058Z,22.50
2018-12-21T21:00:15.357Z,19.48
2018-12-21T21:02:44.504Z,22.32
2018-12-21T21:05:13.861Z,27.32
2018-12-21T21:07:43.051Z,25.95
2018-12-21T21:10:12.892Z,24.53
2018-12-21T21:12:42.462Z,20.13
2018-12-21T21:15:12.856Z,26.17
2018-12-21T21:17:42.087Z,30.10
2018-12-21T21:20:13.858Z,12.60
2018-12-21T21:22:43.261Z,27.65
2018-12-21T21:25:12.621Z,16.93
2018-12-21T21:27:41.873Z,21.77
2018-12-21T21:30:14.072Z,22.25
2018-12-21T21:32:43.207Z,29.70
2018-12-21T21:35:13.240Z,25.93
2018-12-21T21:37:42.298Z,28.15
2018-12-21T21:40:14.947Z,25.55
2018-12-21T21:42:44.088Z,18.57
2018-12-21T21:45:13.547Z,26.10
2018-12-21T21:47:42.683Z,23.85
2018-12-21T21:50:12.056Z,24.67
2018-12-21T21:52:41.080Z,25.77
2018-12-21T21:55:10.299Z,17.30
2018-12-21T21:57:39.823Z,18.23
2018-12-21T22:00:12.671Z,26.93
2018-12-21T22:02:41.855Z,29.05
2018-12-21T22:05:10.911Z,28.52
2018-12-21T22:07:40.052Z,16.70
2018-12-21T22:10:10.841Z,23.87
2018-12-21T22:12:40.002Z,23.07
2018-12-21T22:15:10.219Z,19.10
2018-12-21T22:17:39.300Z,23.75
2018-12-21T22:20:11.219Z,23.77
2018-12-21T22:22:40.455Z,21.23
2018-12-21T22:25:09.888Z,15.23
2018-12-21T22:27:47.683Z,29.27
2018-12-21T22:30:12.095Z,24.05
2018-12-21T22:32:41.260Z,20.50
2018-12-21T22:35:10.298Z,23.60
2018-12-21T22:37:39.298Z,26.33
2018-12-21T22:40:08.930Z,25.40
2018-12-21T22:42:37.989Z,23.35
2018-12-21T22:45:08.143Z,20.72
2018-12-21T22:47:37.265Z,23.43
2018-12-21T22:50:08.178Z,24.02
2018-12-21T22:52:37.847Z,26.10
2018-12-21T22:55:08.226Z,14.03
2018-12-21T22:57:37.411Z,24.35
2018-12-21T23:00:12.659Z,31.20
2018-12-21T23:02:41.815Z,17.95
2018-12-21T23:05:11.169Z,23.07
2018-12-21T23:07:40.310Z,22.55
2018-12-21T23:10:09.544Z,17.13
2018-12-21T23:12:38.651Z,27.62
2018-12-21T23:15:07.932Z,23.07
2018-12-21T23:17:37.273Z,18.65
2018-12-21T23:20:06.852Z,20.92
2018-12-21T23:22:36.103Z,16.37
2018-12-21T23:25:05.536Z,19.87
2018-12-21T23:27:34.700Z,28.77
2018-12-21T23:30:04.033Z,24.32
2018-12-21T23:32:33.200Z,16.12
2018-12-21T23:35:02.328Z,19.07
2018-12-21T23:37:31.503Z,29.77
2018-12-21T23:40:00.527Z,22.55
2018-12-21T23:42:29.571Z,8.58
2018-12-21T23:44:58.848Z,29.57
2018-12-21T23:47:27.971Z,22.15
2018-12-21T23:49:57.148Z,30.82
2018-12-21T23:52:26.156Z,30.57
2018-12-21T23:54:55.287Z,26.12
2018-12-21T23:57:24.453Z,19.67
2018-12-21T23:59:53.480Z,26.48
